Time;durP1;ratioP1;P1;durP2;ratioP2;P2;SDS_P1;SDS_P2;PMS_P1;PMS_P2;Temp;Humidity;BMP_temperature;BMP_pressure;BME280_temperature;BME280_humidity;BME280_pressure;Samples;Min_cycle;Max_cycle;Signal;HPM_P1;HPM_P2
2021/06/13 00:03:17;;;;;;;4.43;2.85;;;;;;;;;;5126283;27;20725;-68
2021/06/13 00:05:43;;;;;;;4.25;2.72;;;;;;;;;;5110472;28;20494;-68
2021/06/13 00:08:09;;;;;;;6.85;3.63;;;;;;;;;;5109967;28;20056;-68
2021/06/13 00:12:29;;;;;;;6.32;3.33;;;;;;;;;;5126372;27;20728;-68
2021/06/13 00:15:52;;;;;;;6.18;3.33;;;;;;;;;;5125917;27;20380;-68
2021/06/13 00:19:36;;;;;;;6.53;3.55;;;;;;;;;;5126641;27;20385;-68
2021/06/13 00:22:03;;;;;;;5.53;2.90;;;;;;;;;;5110122;28;20040;-68
2021/06/13 00:24:50;;;;;;;6.13;3.08;;;;;;;;;;5133384;27;20114;-68
2021/06/13 00:27:16;;;;;;;7.90;3.72;;;;;;;;;;5131016;28;20102;-68
2021/06/13 00:29:43;;;;;;;5.18;3.05;;;;;;;;;;5130599;28;20019;-69
2021/06/13 00:33:32;;;;;;;4.55;2.83;;;;;;;;;;5126380;27;20381;-68
2021/06/13 00:36:17;;;;;;;4.93;3.15;;;;;;;;;;5126163;27;20373;-68
2021/06/13 00:38:43;;;;;;;4.82;3.28;;;;;;;;;;5109299;28;20488;-68
2021/06/13 00:41:10;;;;;;;5.15;3.22;;;;;;;;;;5109306;28;20028;-68
2021/06/13 00:45:36;;;;;;;4.68;2.85;;;;;;;;;;5126409;27;20375;-69
2021/06/13 00:48:47;;;;;;;4.68;2.80;;;;;;;;;;5126394;27;20381;-68
2021/06/13 00:51:13;;;;;;;4.88;3.13;;;;;;;;;;5110114;28;20110;-68
2021/06/13 00:57:52;;;;;;;5.30;3.22;;;;;;;;;;5126136;27;20381;-68
2021/06/13 01:02:04;;;;;;;4.90;3.10;;;;;;;;;;5126381;27;20385;-68
2021/06/13 01:04:30;;;;;;;4.35;3.03;;;;;;;;;;5110035;28;20035;-68
2021/06/13 01:07:07;;;;;;;5.13;3.38;;;;;;;;;;5110406;28;20020;-68
2021/06/13 01:10:38;;;;;;;6.60;3.65;;;;;;;;;;5126095;27;20377;-68
2021/06/13 01:13:13;;;;;;;4.90;2.97;;;;;;;;;;5110477;28;20103;-69
2021/06/13 01:15:43;;;;;;;5.75;3.70;;;;;;;;;;5109176;28;20035;-68
2021/06/13 01:18:33;;;;;;;5.45;3.15;;;;;;;;;;5109972;28;20028;-68
2021/06/13 01:21:09;;;;;;;7.47;3.10;;;;;;;;;;5110668;28;20031;-68
2021/06/13 01:24:55;;;;;;;5.70;2.90;;;;;;;;;;5126097;27;20369;-68
2021/06/13 01:28:58;;;;;;;3.70;2.75;;;;;;;;;;5126478;27;20372;-68
2021/06/13 01:31:54;;;;;;;5.03;3.05;;;;;;;;;;5126012;27;20373;-69
2021/06/13 01:34:31;;;;;;;6.53;3.85;;;;;;;;;;5110508;28;20399;-69
2021/06/13 01:36:59;;;;;;;5.63;3.70;;;;;;;;;;5110498;28;20433;-69
2021/06/13 01:39:28;;;;;;;6.60;3.50;;;;;;;;;;5110154;28;20019;-70
2021/06/13 01:43:44;;;;;;;5.78;3.13;;;;;;;;;;5126311;27;20377;-68
2021/06/13 01:46:10;;;;;;;3.97;2.75;;;;;;;;;;5108819;28;20081;-68
2021/06/13 01:48:38;;;;;;;6.00;3.13;;;;;;;;;;5110401;28;20024;-68
2021/06/13 01:54:41;;;;;;;6.28;3.45;;;;;;;;;;5125956;27;20369;-68
2021/06/13 01:58:20;;;;;;;5.00;3.13;;;;;;;;;;5126264;27;20860;-68
2021/06/13 02:01:18;;;;;;;6.03;3.08;;;;;;;;;;5126241;27;20377;-68
2021/06/13 02:07:45;;;;;;;8.88;3.90;;;;;;;;;;5125980;27;20871;-68
2021/06/13 02:13:49;;;;;;;7.03;3.67;;;;;;;;;;5125972;27;20384;-68
2021/06/13 02:16:16;;;;;;;5.60;3.33;;;;;;;;;;5110461;28;20562;-67
2021/06/13 02:20:54;;;;;;;6.38;3.90;;;;;;;;;;5126412;27;20373;-68
2021/06/13 02:23:23;;;;;;;6.82;3.95;;;;;;;;;;5110686;28;20028;-68
2021/06/13 02:26:29;;;;;;;5.30;3.25;;;;;;;;;;5126324;27;20805;-68
2021/06/13 02:28:57;;;;;;;5.70;3.90;;;;;;;;;;5108842;28;20028;-68
2021/06/13 02:31:25;;;;;;;4.50;3.03;;;;;;;;;;5110391;28;20028;-68
2021/06/13 02:33:51;;;;;;;5.38;3.28;;;;;;;;;;5110425;28;20073;-68
2021/06/13 02:36:18;;;;;;;5.90;3.60;;;;;;;;;;5110026;28;20163;-69
2021/06/13 02:38:45;;;;;;;5.40;3.00;;;;;;;;;;5110289;28;20038;-68
2021/06/13 02:41:12;;;;;;;5.22;3.50;;;;;;;;;;5110347;28;20023;-68
2021/06/13 02:43:38;;;;;;;6.32;3.80;;;;;;;;;;5108717;28;20028;-68
2021/06/13 02:46:04;;;;;;;5.55;3.50;;;;;;;;;;5108842;28;20085;-68
2021/06/13 02:48:50;;;;;;;6.13;3.60;;;;;;;;;;5126401;27;20381;-68
2021/06/13 02:52:12;;;;;;;6.30;4.13;;;;;;;;;;5129752;27;20594;-68
2021/06/13 02:54:39;;;;;;;6.95;4.07;;;;;;;;;;5129686;28;20051;-69
2021/06/13 02:57:08;;;;;;;7.75;3.70;;;;;;;;;;5129284;28;20019;-68
2021/06/13 02:59:40;;;;;;;5.50;3.50;;;;;;;;;;5129602;28;20111;-68
2021/06/13 03:02:08;;;;;;;6.50;3.35;;;;;;;;;;5129759;28;20488;-68
2021/06/13 03:04:35;;;;;;;5.53;3.40;;;;;;;;;;5130615;28;20103;-68
2021/06/13 03:12:10;;;;;;;7.28;4.60;;;;;;;;;;5126116;27;20373;-68
2021/06/13 03:14:39;;;;;;;9.75;4.88;;;;;;;;;;5109237;28;20032;-68
2021/06/13 03:17:06;;;;;;;6.30;4.22;;;;;;;;;;5108720;28;20085;-68
2021/06/13 03:19:32;;;;;;;6.95;4.00;;;;;;;;;;5109123;28;20027;-68
2021/06/13 03:21:58;;;;;;;5.50;3.67;;;;;;;;;;5110519;28;20027;-68
2021/06/13 03:24:25;;;;;;;5.93;3.55;;;;;;;;;;5110194;28;20031;-69
2021/06/13 03:26:54;;;;;;;7.30;3.55;;;;;;;;;;5108996;28;20019;-68
2021/06/13 03:29:21;;;;;;;7.68;4.15;;;;;;;;;;5108980;28;20031;-69
2021/06/13 03:31:48;;;;;;;5.03;3.30;;;;;;;;;;5109785;28;20464;-69
2021/06/13 03:35:56;;;;;;;4.85;3.10;;;;;;;;;;5133448;27;20118;-68
2021/06/13 03:38:53;;;;;;;10.60;5.68;;;;;;;;;;5125950;27;20384;-68
2021/06/13 03:41:21;;;;;;;7.13;3.88;;;;;;;;;;5110621;28;20027;-68
2021/06/13 03:43:48;;;;;;;6.32;3.83;;;;;;;;;;5110596;28;20012;-68
2021/06/13 03:48:06;;;;;;;7.35;3.92;;;;;;;;;;5092371;28;20124;-68
2021/06/13 03:52:11;;;;;;;10.75;4.97;;;;;;;;;;5126168;27;20377;-68
2021/06/13 03:54:37;;;;;;;10.70;5.03;;;;;;;;;;5110547;28;20028;-68
2021/06/13 03:58:03;;;;;;;7.18;4.88;;;;;;;;;;5126266;27;20860;-68
2021/06/13 04:00:30;;;;;;;6.22;4.15;;;;;;;;;;5110157;28;20437;-69
2021/06/13 04:02:58;;;;;;;9.43;4.60;;;;;;;;;;5109326;28;20016;-68
2021/06/13 04:05:24;;;;;;;6.65;4.28;;;;;;;;;;5110584;28;20020;-68
2021/06/13 04:07:50;;;;;;;9.35;4.07;;;;;;;;;;5109979;28;20044;-68
2021/06/13 04:11:12;;;;;;;13.15;5.88;;;;;;;;;;5126354;27;20373;-68
2021/06/13 04:13:38;;;;;;;11.50;5.47;;;;;;;;;;5108856;28;20028;-68
2021/06/13 04:16:07;;;;;;;14.02;7.68;;;;;;;;;;5110437;28;20054;-68
2021/06/13 04:18:34;;;;;;;17.42;7.97;;;;;;;;;;5109094;28;20111;-68
2021/06/13 04:21:01;;;;;;;16.38;8.73;;;;;;;;;;5108649;28;20056;-68
2021/06/13 04:24:16;;;;;;;17.30;9.43;;;;;;;;;;5126633;27;20380;-68
2021/06/13 04:27:42;;;;;;;20.35;10.05;;;;;;;;;;5125993;27;20381;-69
2021/06/13 04:30:08;;;;;;;29.60;12.05;;;;;;;;;;5110541;28;20023;-69
2021/06/13 04:32:35;;;;;;;18.23;10.35;;;;;;;;;;5110346;28;20472;-69
2021/06/13 04:38:11;;;;;;;23.60;9.85;;;;;;;;;;5126345;27;20377;-68
2021/06/13 04:40:37;;;;;;;18.15;8.80;;;;;;;;;;5110403;28;20064;-68
2021/06/13 04:43:03;;;;;;;13.25;8.35;;;;;;;;;;5108910;28;20024;-68
2021/06/13 04:46:26;;;;;;;13.88;7.50;;;;;;;;;;5126312;27;20867;-68
2021/06/13 04:48:52;;;;;;;15.63;6.85;;;;;;;;;;5110032;28;20039;-68
2021/06/13 04:51:19;;;;;;;13.25;7.20;;;;;;;;;;5110343;28;20464;-68
2021/06/13 04:55:24;;;;;;;13.00;7.00;;;;;;;;;;5145501;27;207650;-68
2021/06/13 04:58:10;;;;;;;11.95;6.15;;;;;;;;;;5129974;28;20046;-68
2021/06/13 05:00:37;;;;;;;11.38;6.57;;;;;;;;;;5129896;28;20024;-68
2021/06/13 05:03:03;;;;;;;9.93;5.15;;;;;;;;;;5129350;28;20497;-68
2021/06/13 05:05:29;;;;;;;9.70;5.30;;;;;;;;;;5131068;28;20103;-68
2021/06/13 05:07:55;;;;;;;13.52;5.55;;;;;;;;;;5130914;28;20034;-69
2021/06/13 05:10:21;;;;;;;9.38;5.05;;;;;;;;;;5129024;28;20088;-68
2021/06/13 05:12:48;;;;;;;11.90;5.72;;;;;;;;;;5130656;28;20019;-68
2021/06/13 05:16:41;;;;;;;8.32;4.72;;;;;;;;;;5126079;27;20478;-68
2021/06/13 05:20:32;;;;;;;10.57;5.32;;;;;;;;;;5126233;27;20910;-68
2021/06/13 05:23:00;;;;;;;10.85;5.10;;;;;;;;;;5109225;28;20516;-68
2021/06/13 05:25:29;;;;;;;8.50;4.93;;;;;;;;;;5110211;28;20024;-68
2021/06/13 05:27:56;;;;;;;11.40;5.38;;;;;;;;;;5109071;28;20118;-68
2021/06/13 05:30:23;;;;;;;11.50;5.65;;;;;;;;;;5109040;28;20035;-68
2021/06/13 05:32:49;;;;;;;9.77;4.95;;;;;;;;;;5109937;28;20047;-68
2021/06/13 05:36:28;;;;;;;6.63;3.70;;;;;;;;;;5133322;27;20190;-68
2021/06/13 05:38:55;;;;;;;6.70;3.53;;;;;;;;;;5112217;28;20027;-69
2021/06/13 05:42:09;;;;;;;9.55;4.57;;;;;;;;;;5126407;27;20388;-68
2021/06/13 05:44:35;;;;;;;8.93;4.53;;;;;;;;;;5110676;28;20043;-68
2021/06/13 05:48:47;;;;;;;8.35;5.15;;;;;;;;;;5126340;27;20405;-69
2021/06/13 05:51:14;;;;;;;7.78;4.13;;;;;;;;;;5110568;28;20361;-68
2021/06/13 05:53:41;;;;;;;8.45;4.10;;;;;;;;;;5110020;28;20103;-69
2021/06/13 05:56:07;;;;;;;7.78;3.72;;;;;;;;;;5110378;28;20024;-69
2021/06/13 06:01:38;;;;;;;9.68;3.95;;;;;;;;;;5126399;27;20381;-68
2021/06/13 06:06:55;;;;;;;8.05;3.60;;;;;;;;;;5126175;27;20377;-68
2021/06/13 06:09:21;;;;;;;6.93;4.18;;;;;;;;;;5110448;28;20024;-68
2021/06/13 06:11:47;;;;;;;5.88;3.15;;;;;;;;;;5110364;28;20129;-68
2021/06/13 06:14:13;;;;;;;6.78;3.75;;;;;;;;;;5109893;28;20020;-70
2021/06/13 06:16:39;;;;;;;6.43;3.03;;;;;;;;;;5110266;28;20024;-68
2021/06/13 06:19:06;;;;;;;9.90;4.13;;;;;;;;;;5109012;28;20020;-68
2021/06/13 06:21:32;;;;;;;6.72;3.72;;;;;;;;;;5110168;28;20038;-68
2021/06/13 06:23:58;;;;;;;7.35;3.72;;;;;;;;;;5108891;28;20493;-68
2021/06/13 06:26:24;;;;;;;6.68;3.08;;;;;;;;;;5110292;28;20024;-70
2021/06/13 06:28:50;;;;;;;4.85;2.90;;;;;;;;;;5109746;28;20023;-71
2021/06/13 06:31:17;;;;;;;5.60;3.10;;;;;;;;;;5110043;28;20476;-70
2021/06/13 06:33:43;;;;;;;8.02;3.72;;;;;;;;;;5110026;28;20035;-70
2021/06/13 06:36:09;;;;;;;6.80;4.13;;;;;;;;;;5109572;28;20020;-70
2021/06/13 06:41:43;;;;;;;6.32;3.63;;;;;;;;;;5125936;27;20872;-68
2021/06/13 06:46:03;;;;;;;7.30;3.75;;;;;;;;;;5126546;27;20380;-68
2021/06/13 06:48:29;;;;;;;9.10;4.68;;;;;;;;;;5108824;28;20023;-69
2021/06/13 06:50:55;;;;;;;7.13;4.13;;;;;;;;;;5110428;28;20140;-68
2021/06/13 06:55:31;;;;;;;8.75;4.45;;;;;;;;;;5126072;27;20380;-69
2021/06/13 06:57:58;;;;;;;7.30;3.33;;;;;;;;;;5109286;28;20051;-68
2021/06/13 07:00:24;;;;;;;9.43;4.10;;;;;;;;;;5110741;28;20425;-68
2021/06/13 07:02:50;;;;;;;7.00;3.65;;;;;;;;;;5110160;28;20574;-68
2021/06/13 07:05:58;;;;;;;6.75;4.00;;;;;;;;;;5126688;27;20377;-68
2021/06/13 07:08:36;;;;;;;5.88;3.08;;;;;;;;;;5126468;27;20384;-68
2021/06/13 07:11:02;;;;;;;6.53;3.72;;;;;;;;;;5108818;28;20028;-68
2021/06/13 07:16:03;;;;;;;7.13;4.15;;;;;;;;;;5126187;27;20400;-69
2021/06/13 07:18:29;;;;;;;5.93;3.28;;;;;;;;;;5110457;28;20452;-69
2021/06/13 07:20:55;;;;;;;6.57;3.22;;;;;;;;;;5110427;28;20024;-69
2021/06/13 07:23:22;;;;;;;6.45;3.55;;;;;;;;;;5108905;28;20069;-69
2021/06/13 07:27:21;;;;;;;6.07;3.47;;;;;;;;;;5126404;27;20380;-69
2021/06/13 07:29:47;;;;;;;5.32;3.15;;;;;;;;;;5110472;28;20152;-69
2021/06/13 07:34:10;;;;;;;6.50;3.50;;;;;;;;;;5126208;27;20377;-68
2021/06/13 07:36:37;;;;;;;5.20;2.83;;;;;;;;;;5110252;28;20056;-69
2021/06/13 07:39:04;;;;;;;7.32;4.45;;;;;;;;;;5109998;28;20023;-69
2021/06/13 07:41:30;;;;;;;6.47;3.53;;;;;;;;;;5110412;28;20031;-69
2021/06/13 07:43:56;;;;;;;8.32;3.45;;;;;;;;;;5110347;28;20031;-69
2021/06/13 07:46:22;;;;;;;6.93;3.47;;;;;;;;;;5110049;28;20054;-69
2021/06/13 07:51:03;;;;;;;5.32;3.38;;;;;;;;;;5126143;27;20741;-69
2021/06/13 07:53:31;;;;;;;5.80;3.50;;;;;;;;;;5110055;28;20047;-68
2021/06/13 07:57:19;;;;;;;8.90;3.85;;;;;;;;;;5126224;27;20392;-68
2021/06/13 07:59:46;;;;;;;6.75;3.60;;;;;;;;;;5109975;28;20020;-69
2021/06/13 08:02:12;;;;;;;8.80;3.72;;;;;;;;;;5109251;28;20019;-69
2021/06/13 08:04:46;;;;;;;9.32;3.65;;;;;;;;;;5109278;28;20047;-69
2021/06/13 08:07:12;;;;;;;5.28;2.95;;;;;;;;;;5109880;28;20098;-68
2021/06/13 08:09:38;;;;;;;6.18;3.17;;;;;;;;;;5110115;28;20020;-68
2021/06/13 08:12:05;;;;;;;5.70;3.25;;;;;;;;;;5110285;28;20030;-70
2021/06/13 08:14:31;;;;;;;8.02;3.45;;;;;;;;;;5109855;28;20052;-70
2021/06/13 08:16:57;;;;;;;6.57;4.35;;;;;;;;;;5110151;28;20031;-70
2021/06/13 08:20:58;;;;;;;5.45;3.22;;;;;;;;;;5125982;27;20607;-70
2021/06/13 08:23:25;;;;;;;7.38;3.72;;;;;;;;;;5110582;28;20541;-69
2021/06/13 08:25:51;;;;;;;4.78;2.78;;;;;;;;;;5109090;28;20065;-69
2021/06/13 08:28:18;;;;;;;6.22;3.47;;;;;;;;;;5110054;28;20030;-69
2021/06/13 08:32:58;;;;;;;5.65;3.38;;;;;;;;;;5126152;27;20373;-69
2021/06/13 08:35:24;;;;;;;7.65;3.70;;;;;;;;;;5110062;28;20028;-69
2021/06/13 08:37:51;;;;;;;6.45;3.45;;;;;;;;;;5109047;28;20537;-69
2021/06/13 08:40:17;;;;;;;8.98;4.10;;;;;;;;;;5110378;28;20077;-69
2021/06/13 08:42:44;;;;;;;6.95;3.80;;;;;;;;;;5110021;28;20436;-71
2021/06/13 08:45:11;;;;;;;9.10;4.53;;;;;;;;;;5109161;28;20537;-70
2021/06/13 08:47:38;;;;;;;8.20;4.10;;;;;;;;;;5109896;28;20031;-69
2021/06/13 08:50:05;;;;;;;6.63;3.88;;;;;;;;;;5110193;28;20016;-69
2021/06/13 08:52:31;;;;;;;8.75;4.30;;;;;;;;;;5110130;28;20073;-69
2021/06/13 08:55:01;;;;;;;5.85;3.50;;;;;;;;;;5108390;28;20426;-68
2021/06/13 08:57:28;;;;;;;7.40;3.67;;;;;;;;;;5108638;28;20429;-69
2021/06/13 08:59:54;;;;;;;7.57;3.92;;;;;;;;;;5109923;28;20015;-68
2021/06/13 09:02:20;;;;;;;7.70;3.60;;;;;;;;;;5109716;28;20023;-69
2021/06/13 09:04:46;;;;;;;8.10;4.28;;;;;;;;;;5110053;28;20019;-69
2021/06/13 09:07:14;;;;;;;5.53;3.83;;;;;;;;;;5110125;28;20391;-69
2021/06/13 09:09:40;;;;;;;5.68;3.00;;;;;;;;;;5109453;28;20027;-70
2021/06/13 09:12:07;;;;;;;4.90;3.03;;;;;;;;;;5109748;28;20067;-69
2021/06/13 09:14:44;;;;;;;4.90;3.38;;;;;;;;;;5108415;28;20027;-69
2021/06/13 09:17:13;;;;;;;5.85;3.47;;;;;;;;;;5109284;28;20027;-70
2021/06/13 09:19:59;;;;;;;4.90;3.10;;;;;;;;;;5109739;28;20084;-70
2021/06/13 09:22:25;;;;;;;6.32;3.42;;;;;;;;;;5109592;28;20020;-70
2021/06/13 09:25:03;;;;;;;5.18;2.88;;;;;;;;;;5109299;28;20140;-70
2021/06/13 09:27:30;;;;;;;8.45;3.75;;;;;;;;;;5109391;28;20468;-70
2021/06/13 09:29:56;;;;;;;5.75;3.00;;;;;;;;;;5109064;28;20032;-70
2021/06/13 09:32:22;;;;;;;5.15;2.72;;;;;;;;;;5109100;28;20090;-70
2021/06/13 09:35:08;;;;;;;5.35;3.38;;;;;;;;;;5109327;28;20376;-70
2021/06/13 09:37:34;;;;;;;10.13;3.95;;;;;;;;;;5108725;28;20027;-70
2021/06/13 09:40:09;;;;;;;9.68;5.72;;;;;;;;;;5109052;28;20106;-70
2021/06/13 09:43:57;;;;;;;8.07;5.07;;;;;;;;;;5126206;27;20384;-70
2021/06/13 09:46:25;;;;;;;12.02;5.18;;;;;;;;;;5110664;28;20035;-70
2021/06/13 09:48:53;;;;;;;9.15;5.32;;;;;;;;;;5110587;28;20332;-70
2021/06/13 09:51:20;;;;;;;7.35;3.67;;;;;;;;;;5108746;28;20023;-70
2021/06/13 09:55:27;;;;;;;5.28;3.70;;;;;;;;;;5129658;27;20464;-69
2021/06/13 09:58:06;;;;;;;4.00;2.80;;;;;;;;;;5130486;28;20035;-69
2021/06/13 10:00:32;;;;;;;6.88;3.72;;;;;;;;;;5129701;28;20506;-69
2021/06/13 10:02:58;;;;;;;9.85;3.90;;;;;;;;;;5131104;28;20030;-69
2021/06/13 10:05:24;;;;;;;5.40;3.95;;;;;;;;;;5129258;28;20046;-69
2021/06/13 10:08:48;;;;;;;7.03;3.83;;;;;;;;;;5129817;27;20119;-69
2021/06/13 10:11:15;;;;;;;6.97;4.38;;;;;;;;;;5129705;28;20027;-69
2021/06/13 10:13:44;;;;;;;7.05;3.72;;;;;;;;;;5130485;28;20027;-69
2021/06/13 10:16:11;;;;;;;8.90;4.32;;;;;;;;;;5130867;28;20080;-69
2021/06/13 10:18:42;;;;;;;7.95;3.78;;;;;;;;;;5129382;28;20019;-69
2021/06/13 10:21:08;;;;;;;7.28;4.13;;;;;;;;;;5130587;27;20497;-68
2021/06/13 10:23:36;;;;;;;8.50;3.50;;;;;;;;;;5130868;28;20472;-69
2021/06/13 10:26:03;;;;;;;6.07;3.30;;;;;;;;;;5130313;27;20027;-69
2021/06/13 10:28:29;;;;;;;6.80;3.88;;;;;;;;;;5129232;28;20084;-70
2021/06/13 10:30:56;;;;;;;6.72;3.50;;;;;;;;;;5129271;28;20019;-69
2021/06/13 10:33:24;;;;;;;8.80;4.57;;;;;;;;;;5128861;28;20030;-69
2021/06/13 10:36:35;;;;;;;7.22;4.25;;;;;;;;;;5126428;27;20384;-69
2021/06/13 10:39:02;;;;;;;7.07;4.20;;;;;;;;;;5109356;28;20032;-69
2021/06/13 10:41:28;;;;;;;10.70;5.05;;;;;;;;;;5110218;28;20422;-69
2021/06/13 10:44:02;;;;;;;11.10;4.88;;;;;;;;;;5109087;28;20016;-69
2021/06/13 10:46:29;;;;;;;11.02;5.40;;;;;;;;;;5110236;28;20024;-70
2021/06/13 10:49:35;;;;;;;10.70;4.95;;;;;;;;;;5126322;27;20373;-69
2021/06/13 10:52:05;;;;;;;12.57;5.80;;;;;;;;;;5110449;28;20092;-69
2021/06/13 10:54:53;;;;;;;10.20;5.60;;;;;;;;;;5110034;28;20469;-69
2021/06/13 10:57:19;;;;;;;9.98;5.72;;;;;;;;;;5110441;28;20035;-69
2021/06/13 10:59:45;;;;;;;8.20;5.55;;;;;;;;;;5110429;28;20429;-69
2021/06/13 11:02:14;;;;;;;10.93;6.15;;;;;;;;;;5110161;28;20140;-70
2021/06/13 11:04:43;;;;;;;9.07;4.95;;;;;;;;;;5110377;28;20468;-70
2021/06/13 11:07:10;;;;;;;10.00;5.63;;;;;;;;;;5108943;28;20028;-69
2021/06/13 11:09:55;;;;;;;9.25;5.75;;;;;;;;;;5109708;28;20039;-70
2021/06/13 11:12:40;;;;;;;7.90;5.60;;;;;;;;;;5108821;28;20026;-69
2021/06/13 11:15:07;;;;;;;7.72;5.05;;;;;;;;;;5110050;28;20026;-69
2021/06/13 11:17:52;;;;;;;10.45;5.20;;;;;;;;;;5109673;28;20043;-69
2021/06/13 11:21:07;;;;;;;8.05;4.63;;;;;;;;;;5150599;27;20111;-70
2021/06/13 11:23:33;;;;;;;8.27;4.80;;;;;;;;;;5150074;27;20395;-69
2021/06/13 11:26:00;;;;;;;12.30;7.32;;;;;;;;;;5151631;27;20463;-69
2021/06/13 11:28:28;;;;;;;9.45;5.90;;;;;;;;;;5151655;27;20073;-69
2021/06/13 11:31:16;;;;;;;6.47;4.53;;;;;;;;;;5151202;27;20026;-69
2021/06/13 11:33:44;;;;;;;10.93;5.85;;;;;;;;;;5151477;27;20026;-69
2021/06/13 11:36:25;;;;;;;6.90;4.57;;;;;;;;;;5151429;27;20015;-69
2021/06/13 11:38:53;;;;;;;8.45;4.22;;;;;;;;;;5151240;27;20486;-69
2021/06/13 11:41:43;;;;;;;6.22;4.22;;;;;;;;;;5151405;27;20483;-68
2021/06/13 11:44:13;;;;;;;7.40;4.25;;;;;;;;;;5140684;27;20489;-69
2021/06/13 11:46:44;;;;;;;7.80;4.45;;;;;;;;;;5149820;27;20027;-69
2021/06/13 11:49:13;;;;;;;7.40;4.78;;;;;;;;;;5151103;27;20015;-69
2021/06/13 11:51:53;;;;;;;10.63;4.53;;;;;;;;;;5150743;27;20417;-69
2021/06/13 11:54:33;;;;;;;15.50;5.45;;;;;;;;;;5149710;27;20031;-69
2021/06/13 11:57:00;;;;;;;6.85;4.60;;;;;;;;;;5149549;27;20524;-69
2021/06/13 12:00:18;;;;;;;7.63;5.03;;;;;;;;;;5126266;27;20385;-68
2021/06/13 12:04:51;;;;;;;6.75;3.67;;;;;;;;;;5126063;27;20464;-69
2021/06/13 12:07:21;;;;;;;6.90;3.67;;;;;;;;;;5109138;28;20035;-70
2021/06/13 12:09:48;;;;;;;8.82;3.38;;;;;;;;;;5110297;28;20099;-69
2021/06/13 12:12:19;;;;;;;3.97;2.53;;;;;;;;;;5109981;28;20020;-70
2021/06/13 12:14:46;;;;;;;11.25;3.47;;;;;;;;;;5110620;28;20047;-69
2021/06/13 12:17:23;;;;;;;5.32;3.13;;;;;;;;;;5110299;28;20016;-70
2021/06/13 12:19:51;;;;;;;11.05;3.78;;;;;;;;;;5109824;28;20073;-69
2021/06/13 12:22:49;;;;;;;5.78;3.50;;;;;;;;;;5110434;28;20016;-69
2021/06/13 12:31:12;;;;;;;4.38;2.70;;;;;;;;;;5126328;27;20377;-70
2021/06/13 12:33:38;;;;;;;5.75;2.97;;;;;;;;;;5108809;28;20028;-69
2021/06/13 12:38:54;;;;;;;8.45;2.72;;;;;;;;;;5126436;27;20864;-68
2021/06/13 12:41:21;;;;;;;6.22;3.17;;;;;;;;;;5110113;28;20035;-68
2021/06/13 12:43:49;;;;;;;4.55;3.10;;;;;;;;;;5109322;28;20032;-68
2021/06/13 12:47:55;;;;;;;4.80;2.92;;;;;;;;;;5126015;27;20380;-69
2021/06/13 12:52:25;;;;;;;7.15;3.30;;;;;;;;;;5126130;27;20468;-69
2021/06/13 12:54:56;;;;;;;7.10;3.10;;;;;;;;;;5110167;28;20077;-69
2021/06/13 12:57:22;;;;;;;9.93;3.47;;;;;;;;;;5109128;28;20026;-69
2021/06/13 12:59:49;;;;;;;7.95;4.22;;;;;;;;;;5110459;28;20369;-70
2021/06/13 13:02:15;;;;;;;6.53;3.30;;;;;;;;;;5108839;28;20092;-70
2021/06/13 13:04:43;;;;;;;6.20;3.30;;;;;;;;;;5110390;28;20023;-69
2021/06/13 13:07:09;;;;;;;5.97;3.13;;;;;;;;;;5110292;28;20028;-69
2021/06/13 13:09:35;;;;;;;5.07;3.08;;;;;;;;;;5108523;28;20111;-69
2021/06/13 13:16:21;;;;;;;3.88;2.45;;;;;;;;;;5125965;27;20385;-70
2021/06/13 13:18:48;;;;;;;4.20;2.92;;;;;;;;;;5110483;28;20028;-70
2021/06/13 13:21:14;;;;;;;7.63;2.78;;;;;;;;;;5110536;28;20030;-70
2021/06/13 13:23:44;;;;;;;7.38;3.10;;;;;;;;;;5108807;28;20392;-70
2021/06/13 13:26:11;;;;;;;4.90;2.65;;;;;;;;;;5109107;28;20034;-69
2021/06/13 13:28:38;;;;;;;4.70;2.83;;;;;;;;;;5110339;28;20476;-69
2021/06/13 13:31:07;;;;;;;6.60;3.25;;;;;;;;;;5110005;28;20074;-69
2021/06/13 13:35:35;;;;;;;7.03;2.88;;;;;;;;;;5126397;27;20380;-68
2021/06/13 13:38:02;;;;;;;6.63;4.75;;;;;;;;;;5110184;28;20131;-69
2021/06/13 13:40:28;;;;;;;6.43;2.50;;;;;;;;;;5110754;28;20563;-69
2021/06/13 13:42:55;;;;;;;13.13;2.15;;;;;;;;;;5108766;28;20024;-69
2021/06/13 13:45:22;;;;;;;2.33;1.40;;;;;;;;;;5110356;28;20031;-69
2021/06/13 13:47:48;;;;;;;2.30;1.25;;;;;;;;;;5110280;28;20418;-68
2021/06/13 13:50:14;;;;;;;3.15;1.40;;;;;;;;;;5109957;28;20019;-68
2021/06/13 13:52:40;;;;;;;2.47;1.20;;;;;;;;;;5110161;28;20514;-69
2021/06/13 13:55:07;;;;;;;2.53;1.45;;;;;;;;;;5110036;28;20032;-69
2021/06/13 13:59:31;;;;;;;2.33;1.80;;;;;;;;;;5126378;27;20385;-69
2021/06/13 14:01:58;;;;;;;3.25;1.92;;;;;;;;;;5110601;28;20495;-71
2021/06/13 14:04:25;;;;;;;6.03;1.90;;;;;;;;;;5110004;28;20047;-70
2021/06/13 14:06:52;;;;;;;3.25;1.75;;;;;;;;;;5110401;28;20016;-70
2021/06/13 14:09:18;;;;;;;4.95;2.72;;;;;;;;;;5110194;28;20019;-68
2021/06/13 14:11:45;;;;;;;4.75;2.17;;;;;;;;;;5109952;28;20024;-70
2021/06/13 14:14:11;;;;;;;7.10;2.38;;;;;;;;;;5110324;28;20024;-70
2021/06/13 14:16:37;;;;;;;5.40;2.88;;;;;;;;;;5110121;28;20100;-70
2021/06/13 14:19:03;;;;;;;4.05;2.72;;;;;;;;;;5109904;28;20039;-70
2021/06/13 14:22:58;;;;;;;4.88;2.22;;;;;;;;;;5126504;27;20400;-69
2021/06/13 14:25:25;;;;;;;5.18;2.72;;;;;;;;;;5110175;28;20088;-69
2021/06/13 14:27:51;;;;;;;8.80;2.42;;;;;;;;;;5109052;28;20089;-70
2021/06/13 14:30:19;;;;;;;3.75;2.30;;;;;;;;;;5110402;28;20425;-69
2021/06/13 14:32:45;;;;;;;3.35;2.28;;;;;;;;;;5108657;28;20024;-68
2021/06/13 14:35:12;;;;;;;3.60;2.25;;;;;;;;;;5110285;28;20028;-69
2021/06/13 14:37:38;;;;;;;6.13;2.47;;;;;;;;;;5110258;28;20092;-69
2021/06/13 14:40:06;;;;;;;3.33;1.85;;;;;;;;;;5108618;28;20107;-68
2021/06/13 14:43:44;;;;;;;4.60;2.47;;;;;;;;;;5126411;27;20864;-69
2021/06/13 14:47:03;;;;;;;8.70;2.30;;;;;;;;;;5125934;27;20380;-68
2021/06/13 14:51:57;;;;;;;3.78;2.33;;;;;;;;;;5126362;27;20404;-70
2021/06/13 14:54:23;;;;;;;3.90;2.10;;;;;;;;;;5110019;28;20035;-69
2021/06/13 14:56:49;;;;;;;4.38;2.40;;;;;;;;;;5110481;28;20045;-69
2021/06/13 14:59:56;;;;;;;4.28;2.10;;;;;;;;;;5126415;27;20373;-69
2021/06/13 15:04:02;;;;;;;6.90;2.03;;;;;;;;;;5129687;27;20111;-68
2021/06/13 15:07:32;;;;;;;3.47;2.35;;;;;;;;;;5125942;27;20388;-69
2021/06/13 15:09:58;;;;;;;5.20;2.60;;;;;;;;;;5110349;28;20472;-70
2021/06/13 15:12:24;;;;;;;9.50;2.55;;;;;;;;;;5110217;28;20022;-69
2021/06/13 15:14:51;;;;;;;5.03;2.72;;;;;;;;;;5108668;28;20024;-69
2021/06/13 15:17:17;;;;;;;8.00;2.53;;;;;;;;;;5108962;28;20506;-69
2021/06/13 15:19:44;;;;;;;3.97;2.22;;;;;;;;;;5108994;28;20032;-70
2021/06/13 15:22:10;;;;;;;4.55;2.55;;;;;;;;;;5110030;28;20103;-70
2021/06/13 15:24:37;;;;;;;5.05;2.22;;;;;;;;;;5110152;28;20055;-70
2021/06/13 15:28:47;;;;;;;5.38;2.83;;;;;;;;;;5125712;27;20722;-68
2021/06/13 15:31:14;;;;;;;5.63;2.80;;;;;;;;;;5110342;28;20380;-68
2021/06/13 15:33:58;;;;;;;5.80;2.20;;;;;;;;;;5129879;27;20112;-68
2021/06/13 15:36:24;;;;;;;5.05;2.67;;;;;;;;;;5130666;27;20031;-69
2021/06/13 15:38:50;;;;;;;6.80;3.05;;;;;;;;;;5129542;28;20030;-69
2021/06/13 15:41:17;;;;;;;7.15;2.63;;;;;;;;;;5130892;28;20028;-69
2021/06/13 15:43:43;;;;;;;6.75;2.40;;;;;;;;;;5129531;28;20498;-68
2021/06/13 15:46:10;;;;;;;8.55;3.22;;;;;;;;;;5129449;28;20441;-68
2021/06/13 15:50:16;;;;;;;6.53;3.00;;;;;;;;;;5125869;27;20374;-68
2021/06/13 15:52:43;;;;;;;4.40;2.42;;;;;;;;;;5110473;28;20092;-69
2021/06/13 15:55:10;;;;;;;6.78;2.67;;;;;;;;;;5109122;28;20448;-69
2021/06/13 15:57:36;;;;;;;5.57;2.17;;;;;;;;;;5108627;28;20028;-68
2021/06/13 16:00:03;;;;;;;5.70;2.15;;;;;;;;;;5110293;28;20451;-70
2021/06/13 16:02:32;;;;;;;4.47;2.28;;;;;;;;;;5110500;28;20032;-69
2021/06/13 16:04:58;;;;;;;6.18;3.15;;;;;;;;;;5109953;28;20080;-69
2021/06/13 16:07:24;;;;;;;6.68;2.50;;;;;;;;;;5110219;28;20020;-69
2021/06/13 16:09:50;;;;;;;11.57;2.50;;;;;;;;;;5110088;28;20546;-69
2021/06/13 16:13:16;;;;;;;4.68;2.35;;;;;;;;;;5126364;27;20381;-70
2021/06/13 16:15:42;;;;;;;3.78;1.83;;;;;;;;;;5110423;28;20059;-68
2021/06/13 16:18:08;;;;;;;6.53;2.53;;;;;;;;;;5110065;28;20026;-69
2021/06/13 16:22:33;;;;;;;7.35;1.92;;;;;;;;;;5126700;27;20381;-68
2021/06/13 16:24:59;;;;;;;2.55;1.73;;;;;;;;;;5110050;28;20028;-69
2021/06/13 16:27:25;;;;;;;3.80;1.80;;;;;;;;;;5110426;28;20046;-69
2021/06/13 16:29:51;;;;;;;4.13;1.92;;;;;;;;;;5109163;28;20543;-69
2021/06/13 16:33:35;;;;;;;4.45;2.08;;;;;;;;;;5125928;27;20861;-68
2021/06/13 16:36:01;;;;;;;5.22;2.15;;;;;;;;;;5110452;28;20101;-69
2021/06/13 16:38:27;;;;;;;3.67;1.80;;;;;;;;;;5110661;28;20468;-69
2021/06/13 16:40:54;;;;;;;2.58;1.90;;;;;;;;;;5110123;28;20103;-69
2021/06/13 16:43:24;;;;;;;3.65;1.95;;;;;;;;;;5109099;28;20584;-69
2021/06/13 16:45:51;;;;;;;8.02;2.38;;;;;;;;;;5108626;28;20115;-68
2021/06/13 16:48:17;;;;;;;7.22;1.90;;;;;;;;;;5110232;28;20391;-69
2021/06/13 16:50:43;;;;;;;3.70;1.83;;;;;;;;;;5108931;28;20020;-69
2021/06/13 16:53:09;;;;;;;3.40;2.08;;;;;;;;;;5109753;28;20533;-69
2021/06/13 16:55:36;;;;;;;6.28;2.42;;;;;;;;;;5110110;28;20512;-70
2021/06/13 17:01:29;;;;;;;5.43;2.10;;;;;;;;;;5125994;27;20384;-69
2021/06/13 17:03:55;;;;;;;6.78;1.95;;;;;;;;;;5110469;28;20088;-68
2021/06/13 17:06:39;;;;;;;8.80;2.58;;;;;;;;;;5126634;27;20389;-68
2021/06/13 17:09:05;;;;;;;5.25;2.10;;;;;;;;;;5110036;28;20403;-69